Time;durP1;ratioP1;P1;durP2;ratioP2;P2;SDS_P1;SDS_P2;PMS_P1;PMS_P2;Temp;Humidity;BMP_temperature;BMP_pressure;BME280_temperature;BME280_humidity;BME280_pressure;Samples;Min_cycle;Max_cycle;Signal;HPM_P1;HPM_P2
2023/09/04 00:00:27;;;;;;;2.95;2.17;;;15.70;99.90;;;;;;5025029;28;20054;-65
2023/09/04 00:02:54;;;;;;;2.50;2.20;;;15.70;99.90;;;;;;5026426;28;20502;-65
2023/09/04 00:05:26;;;;;;;2.40;2.10;;;15.70;99.90;;;;;;5025932;28;20046;-65
2023/09/04 00:07:52;;;;;;;5.32;2.35;;;15.70;99.90;;;;;;5021042;28;20045;-64
2023/09/04 00:10:24;;;;;;;2.95;1.95;;;15.70;99.90;;;;;;5021502;28;20038;-64
2023/09/04 00:12:56;;;;;;;2.95;2.38;;;15.60;99.90;;;;;;5017930;28;20057;-65
2023/09/04 00:15:23;;;;;;;4.25;2.05;;;15.60;99.90;;;;;;5027512;28;20117;-65
2023/09/04 00:17:55;;;;;;;2.78;2.30;;;15.60;99.90;;;;;;5028468;28;20069;-65
2023/09/04 00:20:24;;;;;;;2.25;2.00;;;15.60;99.90;;;;;;5025965;28;20056;-64
2023/09/04 00:22:56;;;;;;;;;;;15.60;99.90;;;;;;5027300;28;20044;-65
2023/09/04 00:25:28;;;;;;;2.50;2.10;;;15.60;99.90;;;;;;5029584;28;19921;-65
2023/09/04 00:28:00;;;;;;;2.30;1.98;;;15.50;99.90;;;;;;5034355;28;20045;-65
2023/09/04 00:30:32;;;;;;;2.40;2.08;;;15.50;99.90;;;;;;5025516;28;20076;-65
2023/09/04 00:33:04;;;;;;;3.53;2.63;;;15.50;99.90;;;;;;5029574;28;20068;-65
2023/09/04 00:35:35;;;;;;;2.47;2.28;;;15.50;99.90;;;;;;5016823;28;20049;-64
2023/09/04 00:38:07;;;;;;;2.58;2.28;;;15.50;99.90;;;;;;5020858;28;20041;-65
2023/09/04 00:40:34;;;;;;;3.70;2.40;;;15.50;99.90;;;;;;5040630;28;20440;-65
2023/09/04 00:43:06;;;;;;;2.65;2.17;;;15.50;99.90;;;;;;5031136;28;20549;-65
2023/09/04 00:45:38;;;;;;;2.72;2.50;;;15.50;99.90;;;;;;5025253;28;20529;-65
2023/09/04 00:48:11;;;;;;;4.43;2.30;;;15.40;99.90;;;;;;5009234;28;20038;-65
2023/09/04 00:50:44;;;;;;;3.83;2.17;;;15.40;99.90;;;;;;5025948;28;20049;-65
2023/09/04 00:53:16;;;;;;;3.45;2.33;;;15.40;99.90;;;;;;5010597;28;20040;-65
2023/09/04 00:55:49;;;;;;;2.95;2.40;;;15.40;99.90;;;;;;5028537;28;20050;-64
2023/09/04 00:58:21;;;;;;;4.95;2.20;;;15.40;99.90;;;;;;5014024;28;20124;-64
2023/09/04 01:00:54;;;;;;;2.75;2.42;;;15.40;99.90;;;;;;5012238;28;20038;-65
2023/09/04 01:03:27;;;;;;;2.75;2.35;;;15.40;99.90;;;;;;5018148;28;20034;-65
2023/09/04 01:05:59;;;;;;;4.97;2.88;;;15.30;99.90;;;;;;5018693;28;20045;-65
2023/09/04 01:08:31;;;;;;;3.42;2.30;;;15.30;99.90;;;;;;5009454;28;20119;-65
2023/09/04 01:11:18;;;;;;;4.32;2.63;;;15.30;99.90;;;;;;5024985;28;20054;-65
2023/09/04 01:13:53;;;;;;;3.40;2.60;;;15.30;99.90;;;;;;5043603;28;20061;-65
2023/09/04 01:16:22;;;;;;;5.97;2.92;;;15.30;99.90;;;;;;5024584;28;20041;-65
2023/09/04 01:18:54;;;;;;;3.05;2.72;;;15.30;99.90;;;;;;5040694;28;20049;-65
2023/09/04 01:21:26;;;;;;;3.40;2.72;;;15.30;99.90;;;;;;5015140;28;20037;-65
2023/09/04 01:23:53;;;;;;;4.00;2.83;;;15.30;99.90;;;;;;5032328;28;20466;-65
2023/09/04 01:26:40;;;;;;;4.30;2.63;;;15.30;99.90;;;;;;5027159;28;20041;-65
2023/09/04 01:29:43;;;;;;;3.45;3.15;;;15.30;99.90;;;;;;5026170;28;20046;-65
2023/09/04 01:32:28;;;;;;;3.88;3.03;;;15.30;99.90;;;;;;5027815;28;20049;-65
2023/09/04 01:35:01;;;;;;;5.07;2.65;;;15.30;99.90;;;;;;5020709;28;20046;-65
2023/09/04 01:37:34;;;;;;;3.25;2.90;;;15.20;99.90;;;;;;5038143;28;20110;-65
2023/09/04 01:40:07;;;;;;;3.50;2.70;;;15.20;99.90;;;;;;5044438;28;20046;-64
2023/09/04 01:42:39;;;;;;;3.38;2.70;;;15.20;99.90;;;;;;5020266;28;20083;-65
2023/09/04 01:45:11;;;;;;;3.90;2.60;;;15.10;99.90;;;;;;5012932;28;20068;-65
2023/09/04 01:47:42;;;;;;;3.13;2.70;;;15.10;99.90;;;;;;5039801;28;20050;-65
2023/09/04 01:50:14;;;;;;;5.07;3.10;;;15.10;99.90;;;;;;5025077;28;20046;-64
2023/09/04 01:52:41;;;;;;;3.00;2.70;;;15.10;99.90;;;;;;5009880;28;20136;-65
2023/09/04 01:55:13;;;;;;;3.15;2.60;;;15.10;99.90;;;;;;5030478;28;20136;-64
2023/09/04 01:57:40;;;;;;;2.60;2.40;;;15.10;99.90;;;;;;5039178;28;20149;-65
2023/09/04 02:00:12;;;;;;;4.78;2.80;;;15.10;99.90;;;;;;5034401;28;20045;-65
2023/09/04 02:02:44;;;;;;;3.45;3.13;;;15.10;99.90;;;;;;5024440;28;20054;-64
2023/09/04 02:05:16;;;;;;;3.72;2.88;;;15.10;99.90;;;;;;5019330;28;20046;-64
2023/09/04 02:07:47;;;;;;;3.60;2.63;;;15.10;99.90;;;;;;5016413;28;20132;-65
2023/09/04 02:10:22;;;;;;;3.72;3.03;;;15.10;99.90;;;;;;5028078;28;20768;-65
2023/09/04 02:12:56;;;;;;;4.13;3.20;;;15.10;99.90;;;;;;5027436;28;20509;-65
2023/09/04 02:15:29;;;;;;;3.38;2.42;;;15.00;99.90;;;;;;5029743;28;20033;-65
2023/09/04 02:18:03;;;;;;;3.17;2.65;;;15.00;99.90;;;;;;5028181;28;20053;-64
2023/09/04 02:20:35;;;;;;;4.75;2.80;;;14.90;99.90;;;;;;5023655;28;20045;-65
2023/09/04 02:23:07;;;;;;;4.03;2.58;;;14.90;99.90;;;;;;5026824;28;20044;-65
2023/09/04 02:25:39;;;;;;;3.10;2.80;;;14.80;99.90;;;;;;5011348;28;20472;-65
2023/09/04 02:28:06;;;;;;;4.35;3.08;;;14.80;99.90;;;;;;5039496;28;20130;-65
2023/09/04 02:30:38;;;;;;;2.67;2.47;;;14.80;99.90;;;;;;5018540;28;20081;-65
2023/09/04 02:33:10;;;;;;;4.68;3.33;;;14.80;99.90;;;;;;5003570;28;20048;-65
2023/09/04 02:35:42;;;;;;;3.45;2.97;;;14.70;99.90;;;;;;5027061;28;20052;-65
2023/09/04 02:38:14;;;;;;;4.72;3.08;;;14.70;99.90;;;;;;5031166;28;20402;-65
2023/09/04 02:40:41;;;;;;;4.50;3.20;;;14.70;99.90;;;;;;5041066;28;20053;-65
2023/09/04 02:43:07;;;;;;;3.42;3.13;;;14.70;99.90;;;;;;5024446;28;20133;-65
2023/09/04 02:45:40;;;;;;;3.55;3.22;;;14.70;99.90;;;;;;5033619;28;20048;-64
2023/09/04 02:48:07;;;;;;;3.53;3.22;;;14.60;99.90;;;;;;5035074;28;20042;-65
2023/09/04 02:50:43;;;;;;;5.25;3.38;;;14.60;99.90;;;;;;5023096;28;20050;-65
2023/09/04 02:53:15;;;;;;;4.43;3.17;;;14.60;99.90;;;;;;5025749;28;20053;-64
2023/09/04 02:55:50;;;;;;;3.95;3.55;;;14.60;99.90;;;;;;5019935;28;20561;-65
2023/09/04 02:58:22;;;;;;;5.90;3.80;;;14.60;99.90;;;;;;5033580;28;20049;-65
2023/09/04 03:00:53;;;;;;;4.45;3.40;;;14.50;99.90;;;;;;5026098;28;20065;-65
2023/09/04 03:03:25;;;;;;;5.63;3.60;;;14.50;99.90;;;;;;5040892;28;20126;-65
2023/09/04 03:05:52;;;;;;;5.72;3.97;;;14.50;99.90;;;;;;5030460;28;20477;-65
2023/09/04 03:08:24;;;;;;;3.85;3.35;;;14.50;99.90;;;;;;5031948;28;20124;-65
2023/09/04 03:10:51;;;;;;;4.38;3.13;;;14.40;99.90;;;;;;5013062;28;20046;-65
2023/09/04 03:13:23;;;;;;;3.80;3.50;;;14.40;99.90;;;;;;5037458;28;20064;-64
2023/09/04 03:15:54;;;;;;;4.25;3.38;;;14.40;99.90;;;;;;5021529;28;20046;-64
2023/09/04 03:18:26;;;;;;;4.72;3.60;;;14.40;99.90;;;;;;5020315;28;20037;-65
2023/09/04 03:20:58;;;;;;;4.10;3.70;;;14.30;99.90;;;;;;5040750;28;20037;-64
2023/09/04 03:23:32;;;;;;;3.72;3.20;;;14.30;99.90;;;;;;5014631;28;20037;-64
2023/09/04 03:26:04;;;;;;;4.65;3.72;;;14.30;99.90;;;;;;5035801;28;20134;-64
2023/09/04 03:28:36;;;;;;;5.10;4.13;;;14.30;99.90;;;;;;5012647;28;20413;-64
2023/09/04 03:31:03;;;;;;;5.47;3.20;;;14.30;99.90;;;;;;5029362;28;20050;-64
2023/09/04 03:33:35;;;;;;;5.85;3.40;;;14.30;99.90;;;;;;5045992;28;20039;-64
2023/09/04 03:36:04;;;;;;;5.10;3.67;;;14.20;99.90;;;;;;5039636;28;20034;-65
2023/09/04 03:38:35;;;;;;;5.78;3.67;;;14.20;99.90;;;;;;5006992;28;20048;-64
2023/09/04 03:41:08;;;;;;;4.63;3.20;;;14.20;99.90;;;;;;5020837;28;20462;-65
2023/09/04 03:43:40;;;;;;;5.50;3.60;;;14.20;99.90;;;;;;5024050;28;20060;-64
2023/09/04 03:46:12;;;;;;;5.45;3.83;;;14.10;99.90;;;;;;5041542;28;20045;-65
2023/09/04 03:48:43;;;;;;;7.28;4.10;;;14.10;99.90;;;;;;5024582;28;20081;-65
2023/09/04 03:51:15;;;;;;;4.80;3.65;;;14.10;99.90;;;;;;5020516;28;20044;-65
2023/09/04 03:53:48;;;;;;;7.40;4.03;;;14.10;99.90;;;;;;5023002;28;20058;-64
2023/09/04 03:56:20;;;;;;;5.30;3.63;;;14.00;99.90;;;;;;5042911;28;20042;-65
2023/09/04 03:58:52;;;;;;;5.30;3.40;;;14.00;99.90;;;;;;5025571;28;20071;-64
2023/09/04 04:01:24;;;;;;;6.10;3.75;;;14.00;99.90;;;;;;5032822;28;20243;-65
2023/09/04 04:03:56;;;;;;;4.57;3.83;;;14.00;99.90;;;;;;5020943;28;20072;-65
2023/09/04 04:06:28;;;;;;;7.63;4.32;;;14.00;99.90;;;;;;5022871;28;20478;-64
2023/09/04 04:08:59;;;;;;;7.20;3.90;;;14.00;99.90;;;;;;5018219;28;20050;-64
2023/09/04 04:11:31;;;;;;;7.13;4.20;;;14.00;99.90;;;;;;5010621;28;20386;-65
2023/09/04 04:13:58;;;;;;;5.50;4.15;;;14.00;99.90;;;;;;5020573;28;20120;-65
2023/09/04 04:16:25;;;;;;;7.40;4.28;;;14.00;99.90;;;;;;5034330;28;20073;-64
2023/09/04 04:18:52;;;;;;;6.07;4.57;;;14.00;99.90;;;;;;5044977;28;20095;-64
2023/09/04 04:21:18;;;;;;;7.20;4.50;;;13.90;99.90;;;;;;5028155;28;20061;-65
2023/09/04 04:23:50;;;;;;;6.43;4.20;;;14.00;99.90;;;;;;5024192;28;20461;-65
2023/09/04 04:26:22;;;;;;;6.03;4.18;;;13.90;99.90;;;;;;5025268;28;20053;-65
2023/09/04 04:28:54;;;;;;;7.88;4.68;;;13.90;99.90;;;;;;5019789;28;20053;-64
2023/09/04 04:31:25;;;;;;;5.97;4.85;;;13.90;99.90;;;;;;5033030;28;20073;-64
2023/09/04 04:33:57;;;;;;;6.65;4.80;;;13.90;99.90;;;;;;5030726;28;20629;-64
2023/09/04 04:36:30;;;;;;;5.30;4.53;;;13.90;99.90;;;;;;5005752;28;20065;-66
2023/09/04 04:39:03;;;;;;;7.40;5.70;;;13.90;99.90;;;;;;5017222;28;20042;-64
2023/09/04 04:41:32;;;;;;;8.63;5.40;;;13.90;99.90;;;;;;5040630;28;20454;-65
2023/09/04 04:44:05;;;;;;;7.63;6.55;;;13.90;99.90;;;;;;5025125;28;20050;-65
2023/09/04 04:46:37;;;;;;;8.30;6.20;;;13.90;99.90;;;;;;5028806;28;20067;-65
2023/09/04 04:49:09;;;;;;;7.00;5.90;;;13.90;99.90;;;;;;5015703;28;20054;-65
2023/09/04 04:51:41;;;;;;;6.85;6.15;;;13.90;99.90;;;;;;5019331;28;20052;-64
2023/09/04 04:54:08;;;;;;;8.77;6.13;;;13.90;99.90;;;;;;5041885;28;20057;-64
2023/09/04 04:56:39;;;;;;;8.02;5.90;;;14.00;99.90;;;;;;5032142;28;20426;-65
2023/09/04 04:59:11;;;;;;;5.97;5.38;;;14.00;99.90;;;;;;5025451;28;20497;-64
2023/09/04 05:01:45;;;;;;;7.10;6.18;;;14.00;99.90;;;;;;5010779;28;20577;-65
2023/09/04 05:04:12;;;;;;;6.80;5.88;;;14.00;99.90;;;;;;5040527;28;20530;-64
2023/09/04 05:06:46;;;;;;;6.70;5.60;;;14.00;99.90;;;;;;5025042;28;20064;-64
2023/09/04 05:09:17;;;;;;;6.55;5.43;;;14.00;99.90;;;;;;5025310;28;20077;-65
2023/09/04 05:11:50;;;;;;;7.25;5.53;;;14.00;99.90;;;;;;5024167;28;20049;-64
2023/09/04 05:14:22;;;;;;;9.00;5.43;;;14.00;99.90;;;;;;5024709;28;20128;-64
2023/09/04 05:16:54;;;;;;;6.40;5.57;;;14.00;99.90;;;;;;5023430;28;20041;-65
2023/09/04 05:19:29;;;;;;;8.13;5.47;;;14.00;99.90;;;;;;5026089;28;20434;-65
2023/09/04 05:22:00;;;;;;;6.78;5.25;;;14.00;99.90;;;;;;5025582;28;20416;-65
2023/09/04 05:24:32;;;;;;;6.03;5.43;;;14.00;99.90;;;;;;5039354;28;20056;-65
2023/09/04 05:27:05;;;;;;;6.43;5.35;;;14.00;99.90;;;;;;5020904;28;20426;-64
2023/09/04 05:29:37;;;;;;;6.93;5.82;;;14.00;99.90;;;;;;5035629;28;20048;-65
2023/09/04 05:32:09;;;;;;;6.95;6.10;;;14.00;99.90;;;;;;5027751;28;20439;-65
2023/09/04 05:34:41;;;;;;;7.03;6.32;;;14.00;99.90;;;;;;5030631;28;20045;-65
2023/09/04 05:37:13;;;;;;;7.88;6.85;;;14.10;99.90;;;;;;5022239;28;20046;-64
2023/09/04 05:39:45;;;;;;;7.80;7.00;;;14.10;99.90;;;;;;5022110;28;20056;-64
2023/09/04 05:42:17;;;;;;;7.57;6.15;;;14.10;99.90;;;;;;5024766;28;20046;-65
2023/09/04 05:44:49;;;;;;;7.93;7.13;;;14.20;99.90;;;;;;5026839;28;20044;-64
2023/09/04 05:47:24;;;;;;;8.90;7.00;;;14.20;99.90;;;;;;5033748;28;20097;-66
2023/09/04 05:49:51;;;;;;;7.50;6.72;;;14.20;99.90;;;;;;5013272;28;20050;-65
2023/09/04 05:52:23;;;;;;;8.57;7.57;;;14.30;99.90;;;;;;5031409;28;20046;-65
2023/09/04 05:54:54;;;;;;;9.07;7.75;;;14.30;99.90;;;;;;5030331;28;20047;-65
2023/09/04 05:57:26;;;;;;;9.65;8.65;;;14.30;99.90;;;;;;5024649;28;20507;-64
2023/09/04 05:59:58;;;;;;;10.57;8.25;;;14.40;99.90;;;;;;5024909;28;20152;-65
2023/09/04 06:02:26;;;;;;;10.82;9.45;;;14.40;99.90;;;;;;5039543;28;20685;-65
2023/09/04 06:04:58;;;;;;;8.77;7.88;;;14.50;99.90;;;;;;5026757;28;20037;-65
2023/09/04 06:07:30;;;;;;;9.63;8.40;;;14.50;99.90;;;;;;5024845;28;20136;-64
2023/09/04 06:10:03;;;;;;;8.48;7.68;;;14.50;99.90;;;;;;5019517;28;20076;-65
2023/09/04 06:12:35;;;;;;;10.48;8.88;;;14.60;99.90;;;;;;5015984;28;20041;-64
2023/09/04 06:15:07;;;;;;;9.98;8.13;;;14.60;99.90;;;;;;5031774;28;20041;-65
2023/09/04 06:17:40;;;;;;;10.68;8.77;;;14.70;99.90;;;;;;5045511;28;20053;-64
2023/09/04 06:20:11;;;;;;;15.63;10.20;;;14.70;99.90;;;;;;5027433;28;20525;-65
2023/09/04 06:22:43;;;;;;;19.27;17.00;;;14.80;99.90;;;;;;5027574;28;20425;-65
2023/09/04 06:25:15;;;;;;;23.08;18.50;;;14.80;99.90;;;;;;5024626;28;20038;-65
2023/09/04 06:27:47;;;;;;;24.55;20.92;;;14.90;99.90;;;;;;5027273;28;20045;-65
2023/09/04 06:30:19;;;;;;;15.30;13.52;;;14.90;99.90;;;;;;5037914;28;20107;-65
2023/09/04 06:32:51;;;;;;;12.13;10.88;;;14.90;99.90;;;;;;5018991;28;20051;-64
2023/09/04 06:35:23;;;;;;;11.13;8.77;;;15.00;99.90;;;;;;5017700;28;20434;-65
2023/09/04 06:37:55;;;;;;;9.98;8.98;;;15.00;99.90;;;;;;5012371;28;20045;-65
2023/09/04 06:40:27;;;;;;;10.90;9.80;;;15.00;99.90;;;;;;5038909;28;20525;-65
2023/09/04 06:42:59;;;;;;;10.63;9.60;;;15.10;99.90;;;;;;5030275;28;20045;-65
2023/09/04 06:45:31;;;;;;;11.27;10.10;;;15.10;99.90;;;;;;5026405;28;20049;-65
2023/09/04 06:48:05;;;;;;;10.57;8.98;;;15.20;99.90;;;;;;5019496;28;20041;-65
2023/09/04 06:50:37;;;;;;;16.27;10.15;;;15.30;99.90;;;;;;5029638;28;20044;-65
2023/09/04 06:53:09;;;;;;;19.05;16.17;;;15.30;99.90;;;;;;5024736;28;20429;-64
2023/09/04 06:55:40;;;;;;;24.55;21.00;;;15.40;99.90;;;;;;5029631;28;20152;-65
2023/09/04 06:58:12;;;;;;;20.45;17.02;;;15.40;99.90;;;;;;5017669;28;20061;-65
2023/09/04 07:00:44;;;;;;;12.13;10.85;;;15.50;99.90;;;;;;5020952;28;20044;-65
2023/09/04 07:03:16;;;;;;;12.18;10.15;;;15.60;99.90;;;;;;5026733;28;20042;-65
2023/09/04 07:05:48;;;;;;;10.35;9.35;;;15.70;99.90;;;;;;5026274;28;20416;-65
2023/09/04 07:08:20;;;;;;;9.82;8.82;;;15.80;99.90;;;;;;5027386;28;20095;-65
2023/09/04 07:10:53;;;;;;;10.57;9.48;;;15.80;99.90;;;;;;5028039;28;20536;-65
2023/09/04 07:13:25;;;;;;;16.00;11.65;;;15.90;99.90;;;;;;5030896;28;20060;-65
2023/09/04 07:15:56;;;;;;;15.48;11.20;;;16.00;99.90;;;;;;5042904;28;20051;-66
2023/09/04 07:18:28;;;;;;;12.13;10.00;;;16.10;99.90;;;;;;5037723;28;20049;-65
2023/09/04 07:21:00;;;;;;;12.23;9.77;;;16.20;99.90;;;;;;5038579;28;20050;-65
2023/09/04 07:23:33;;;;;;;10.63;9.07;;;16.30;99.90;;;;;;5040150;28;20041;-64
2023/09/04 07:26:04;;;;;;;12.93;10.13;;;16.40;99.90;;;;;;5037999;28;20506;-63
2023/09/04 07:28:36;;;;;;;14.45;11.65;;;16.50;99.90;;;;;;5032025;28;20045;-64
2023/09/04 07:31:19;;;;;;;11.73;10.52;;;16.50;99.90;;;;;;5033607;28;20032;-65
2023/09/04 07:33:51;;;;;;;13.35;9.00;;;16.60;99.90;;;;;;5035164;28;20095;-65
2023/09/04 07:36:23;;;;;;;11.35;10.05;;;16.70;99.90;;;;;;5032737;28;20395;-64
2023/09/04 07:38:55;;;;;;;10.45;9.20;;;16.80;99.90;;;;;;5035104;28;20048;-65
2023/09/04 07:41:22;;;;;;;9.50;8.25;;;16.90;99.90;;;;;;5036780;28;20116;-65
2023/09/04 07:43:54;;;;;;;9.32;8.32;;;17.00;99.90;;;;;;5040363;28;20531;-65
2023/09/04 07:46:26;;;;;;;10.50;9.40;;;17.10;99.90;;;;;;5036633;28;20505;-65
2023/09/04 07:48:53;;;;;;;9.27;8.20;;;17.20;99.90;;;;;;5038563;28;20055;-65
2023/09/04 07:51:20;;;;;;;9.18;8.27;;;17.30;99.90;;;;;;5035470;28;20056;-65
2023/09/04 07:53:52;;;;;;;9.02;7.47;;;17.40;99.90;;;;;;5036741;28;20132;-65
2023/09/04 07:56:24;;;;;;;8.55;7.75;;;17.60;99.90;;;;;;5037455;28;20501;-65
2023/09/04 07:58:56;;;;;;;8.52;7.43;;;17.70;99.90;;;;;;5037364;28;20033;-65
2023/09/04 08:01:30;;;;;;;7.47;6.78;;;17.80;99.90;;;;;;5039069;28;20033;-65
2023/09/04 08:04:03;;;;;;;8.38;6.88;;;17.90;99.90;;;;;;5038925;28;20028;-65
2023/09/04 08:06:30;;;;;;;6.50;5.90;;;18.10;99.90;;;;;;5036968;28;20487;-65
2023/09/04 08:09:02;;;;;;;6.25;5.60;;;18.20;99.90;;;;;;5038004;28;20049;-65
2023/09/04 08:11:28;;;;;;;6.90;5.88;;;18.30;99.90;;;;;;5039598;28;20117;-66
2023/09/04 08:14:01;;;;;;;6.30;5.65;;;18.40;99.90;;;;;;5015097;28;20414;-65
2023/09/04 08:16:32;;;;;;;8.35;6.20;;;18.50;99.90;;;;;;5029583;28;20038;-65
2023/09/04 08:18:59;;;;;;;9.13;6.65;;;18.60;99.90;;;;;;5035675;28;20044;-65
2023/09/04 08:21:31;;;;;;;7.55;5.95;;;18.80;99.90;;;;;;5030580;28;20129;-65
2023/09/04 08:23:58;;;;;;;8.30;6.03;;;18.90;99.90;;;;;;5028402;28;20037;-65
2023/09/04 08:26:30;;;;;;;7.15;6.45;;;19.00;99.90;;;;;;5034060;28;20045;-66
2023/09/04 08:29:02;;;;;;;7.32;5.88;;;19.10;99.90;;;;;;5024287;28;20029;-65
2023/09/04 08:31:34;;;;;;;6.70;6.10;;;19.20;99.90;;;;;;5023791;28;20422;-65
2023/09/04 08:34:06;;;;;;;6.82;6.13;;;19.30;99.90;;;;;;5023760;28;20409;-65
2023/09/04 08:36:38;;;;;;;5.97;5.28;;;19.40;99.90;;;;;;5033346;28;20070;-65
2023/09/04 08:39:05;;;;;;;6.18;5.57;;;19.60;99.90;;;;;;5026989;28;20036;-65
2023/09/04 08:41:34;;;;;;;6.18;5.20;;;19.70;99.90;;;;;;5026712;28;20034;-65
2023/09/04 08:44:03;;;;;;;7.07;5.10;;;19.80;99.90;;;;;;5044422;28;20573;-65
2023/09/04 08:46:31;;;;;;;7.18;5.47;;;19.90;99.90;;;;;;5030490;28;20524;-65
2023/09/04 08:49:03;;;;;;;5.75;5.13;;;20.00;99.90;;;;;;5029859;28;20104;-65
2023/09/04 08:51:47;;;;;;;5.82;5.22;;;20.10;99.90;;;;;;5043094;28;20048;-65
2023/09/04 08:54:19;;;;;;;5.18;4.68;;;20.30;99.90;;;;;;5027019;28;20042;-65
2023/09/04 08:56:52;;;;;;;7.72;5.35;;;20.40;99.90;;;;;;5025213;28;20422;-65
2023/09/04 08:59:23;;;;;;;5.00;4.60;;;20.50;99.90;;;;;;5030185;28;20087;-65
2023/09/04 09:01:56;;;;;;;5.03;4.63;;;20.60;99.90;;;;;;5033096;28;20041;-65
2023/09/04 09:04:28;;;;;;;5.72;4.97;;;20.70;99.90;;;;;;5028056;28;20506;-65
2023/09/04 09:07:03;;;;;;;4.80;4.30;;;20.80;99.90;;;;;;5025811;28;20041;-65
2023/09/04 09:09:38;;;;;;;4.88;4.47;;;20.90;99.90;;;;;;5016127;28;20507;-65
2023/09/04 09:12:10;;;;;;;4.90;4.38;;;21.10;99.90;;;;;;5029293;28;20124;-65
2023/09/04 09:14:42;;;;;;;5.18;4.75;;;21.20;99.90;;;;;;5022984;28;20046;-65
2023/09/04 09:17:14;;;;;;;4.65;4.25;;;21.30;99.90;;;;;;5023159;28;20037;-65
2023/09/04 09:19:46;;;;;;;4.65;4.25;;;21.40;99.90;;;;;;5021319;28;20042;-65
2023/09/04 09:22:20;;;;;;;4.85;4.45;;;21.40;99.90;;;;;;5025989;28;20473;-65
2023/09/04 09:24:56;;;;;;;4.97;4.00;;;21.50;99.90;;;;;;5032407;28;20051;-65
2023/09/04 09:27:31;;;;;;;4.25;3.70;;;21.60;99.90;;;;;;5011338;28;20434;-65
2023/09/04 09:30:03;;;;;;;4.25;3.40;;;21.70;99.90;;;;;;5024667;28;20053;-65
2023/09/04 09:32:35;;;;;;;6.32;4.20;;;21.80;99.90;;;;;;5023883;28;20061;-65
2023/09/04 09:35:03;;;;;;;4.88;3.90;;;21.90;99.90;;;;;;5025261;28;20047;-64
2023/09/04 09:37:34;;;;;;;4.05;3.65;;;21.90;99.90;;;;;;5028404;28;20048;-65
2023/09/04 09:40:04;;;;;;;4.70;4.30;;;22.10;99.90;;;;;;5028829;28;20109;-65
2023/09/04 09:42:36;;;;;;;5.57;3.90;;;22.10;99.90;;;;;;5027621;28;20541;-65
2023/09/04 09:45:06;;;;;;;7.82;5.25;;;22.20;99.90;;;;;;5028804;28;20080;-66
2023/09/04 09:47:38;;;;;;;4.00;3.70;;;22.30;99.90;;;;;;5029200;28;20133;-65
2023/09/04 09:50:14;;;;;;;4.15;3.70;;;22.50;99.90;;;;;;5026154;28;20508;-65
2023/09/04 09:53:12;;;;;;;5.18;3.53;;;22.60;99.90;;;;;;5022356;28;20120;-65
2023/09/04 09:55:47;;;;;;;3.95;3.65;;;22.70;99.90;;;;;;5018746;28;20183;-65
2023/09/04 09:58:20;;;;;;;7.30;3.90;;;22.80;99.90;;;;;;5025886;28;20037;-65
2023/09/04 10:00:53;;;;;;;4.40;3.50;;;22.90;99.90;;;;;;5043220;28;20030;-66
2023/09/04 10:03:25;;;;;;;3.53;3.22;;;23.00;99.90;;;;;;5022164;28;20045;-66
2023/09/04 10:05:51;;;;;;;3.85;3.38;;;23.10;99.90;;;;;;5027970;28;20148;-66
2023/09/04 10:08:24;;;;;;;3.83;3.33;;;23.10;99.90;;;;;;5029050;28;20065;-65
2023/09/04 10:10:57;;;;;;;2.90;2.60;;;23.20;99.90;;;;;;5029620;28;20050;-65
2023/09/04 10:13:34;;;;;;;5.18;2.75;;;23.30;99.90;;;;;;5039077;28;20046;-65
2023/09/04 10:16:13;;;;;;;11.15;4.47;;;23.40;99.90;;;;;;5025655;28;20430;-65
2023/09/04 10:18:43;;;;;;;3.28;2.97;;;23.40;99.90;;;;;;5026106;28;20053;-66
2023/09/04 10:21:19;;;;;;;4.22;2.78;;;23.50;99.90;;;;;;5029157;28;20042;-66
2023/09/04 10:23:55;;;;;;;4.53;3.05;;;23.50;99.90;;;;;;5026975;28;20037;-66
2023/09/04 10:26:38;;;;;;;3.58;3.28;;;23.50;99.90;;;;;;5026536;28;20392;-66
2023/09/04 10:29:16;;;;;;;4.13;3.13;;;23.60;99.90;;;;;;5025473;28;20121;-66
2023/09/04 10:31:49;;;;;;;3.47;3.08;;;23.50;99.90;;;;;;5039654;28;20112;-66
2023/09/04 10:34:21;;;;;;;5.20;2.90;;;23.60;99.90;;;;;;5030948;28;20064;-66
2023/09/04 10:36:53;;;;;;;4.13;2.92;;;23.60;99.90;;;;;;5030134;28;20042;-66
2023/09/04 10:39:26;;;;;;;4.35;3.33;;;23.60;99.90;;;;;;5005134;28;20125;-65
2023/09/04 10:41:58;;;;;;;3.90;3.30;;;23.70;99.90;;;;;;5029607;28;20037;-65
2023/09/04 10:44:46;;;;;;;3.42;3.13;;;23.80;99.90;;;;;;5035260;28;20372;-69
2023/09/04 10:47:19;;;;;;;5.15;4.15;;;23.90;99.90;;;;;;5033011;28;20037;-65
2023/09/04 10:49:51;;;;;;;3.30;3.00;;;24.00;99.90;;;;;;5032700;28;20520;-66
2023/09/04 10:52:41;;;;;;;3.60;3.17;;;24.00;99.90;;;;;;5033750;28;20127;-65
2023/09/04 10:55:12;;;;;;;4.20;2.83;;;24.10;99.90;;;;;;5025759;28;20052;-65
2023/09/04 10:57:57;;;;;;;5.60;3.10;;;24.20;99.90;;;;;;5030220;28;20038;-65
2023/09/04 11:00:38;;;;;;;3.90;3.10;;;24.30;99.90;;;;;;5030235;28;20121;-65
2023/09/04 11:03:22;;;;;;;4.32;2.85;;;24.40;99.90;;;;;;5029774;28;20049;-65
2023/09/04 11:06:03;;;;;;;3.80;3.03;;;24.40;99.90;;;;;;5024925;28;20121;-65
2023/09/04 11:08:36;;;;;;;4.05;3.65;;;24.50;99.90;;;;;;5037555;28;20042;-65
2023/09/04 11:11:08;;;;;;;3.30;2.80;;;24.60;99.90;;;;;;5030439;28;20056;-65
2023/09/04 11:13:40;;;;;;;3.70;3.35;;;24.50;99.90;;;;;;5031617;28;20152;-66
2023/09/04 11:16:15;;;;;;;5.07;3.38;;;24.60;99.90;;;;;;5031618;28;20460;-65
2023/09/04 11:18:43;;;;;;;3.60;3.30;;;24.70;99.90;;;;;;5034671;28;20040;-66
2023/09/04 11:21:15;;;;;;;;;;;24.70;99.90;;;;;;5029818;28;20029;-66
2023/09/04 11:23:47;;;;;;;3.05;2.75;;;24.80;99.90;;;;;;5035290;28;19937;-66
2023/09/04 11:26:13;;;;;;;4.10;3.40;;;24.80;99.90;;;;;;5021667;28;20033;-66
2023/09/04 11:28:45;;;;;;;3.45;3.10;;;24.80;99.90;;;;;;5028398;28;20069;-66
2023/09/04 11:31:18;;;;;;;3.67;3.20;;;25.00;99.90;;;;;;5023985;28;20056;-65
2023/09/04 11:33:50;;;;;;;3.15;2.85;;;25.00;99.90;;;;;;5028342;28;20050;-66
2023/09/04 11:36:23;;;;;;;5.95;3.45;;;25.10;99.90;;;;;;5030960;28;20535;-66
2023/09/04 11:39:06;;;;;;;3.30;3.00;;;25.10;99.90;;;;;;5029500;28;20037;-66
2023/09/04 11:41:40;;;;;;;5.90;4.10;;;25.20;99.90;;;;;;5025251;28;20057;-66
2023/09/04 11:44:09;;;;;;;3.65;3.25;;;25.30;99.90;;;;;;5030582;28;20421;-66
2023/09/04 11:46:43;;;;;;;3.40;3.10;;;25.40;99.90;;;;;;5030527;28;20502;-66
2023/09/04 11:49:17;;;;;;;3.17;2.70;;;25.50;99.90;;;;;;5019843;28;20124;-65
2023/09/04 11:51:44;;;;;;;4.38;2.95;;;25.60;99.90;;;;;;5022227;28;20136;-66
2023/09/04 11:57:09;;;;;;;3.42;3.03;;;25.70;99.90;;;;;;5028881;28;20049;-66
2023/09/04 11:59:42;;;;;;;4.28;2.97;;;25.80;99.90;;;;;;5047147;28;20481;-66
2023/09/04 12:02:14;;;;;;;4.20;3.13;;;25.80;99.90;;;;;;5019810;28;20033;-66
2023/09/04 12:04:47;;;;;;;3.58;3.10;;;25.90;99.90;;;;;;5037224;28;20068;-65
2023/09/04 12:07:19;;;;;;;3.60;3.30;;;25.90;99.90;;;;;;5030937;28;20509;-65
2023/09/04 12:09:46;;;;;;;4.78;2.83;;;26.00;99.90;;;;;;5027857;28;20069;-66
2023/09/04 12:12:20;;;;;;;5.28;3.30;;;26.10;99.90;;;;;;5021946;28;20068;-66
2023/09/04 12:14:47;;;;;;;3.53;3.03;;;26.10;99.90;;;;;;5043634;28;20049;-66
2023/09/04 12:17:19;;;;;;;3.33;3.03;;;26.20;99.90;;;;;;5016472;28;20088;-66
2023/09/04 12:19:50;;;;;;;4.63;2.80;;;26.30;99.90;;;;;;5029366;28;20034;-66
2023/09/04 12:22:22;;;;;;;3.38;2.90;;;26.30;99.90;;;;;;5022118;28;20128;-66
2023/09/04 12:25:08;;;;;;;3.50;2.47;;;26.40;99.90;;;;;;5030722;28;20048;-66
2023/09/04 12:27:40;;;;;;;6.85;3.30;;;26.50;99.90;;;;;;5040983;28;20053;-66
2023/09/04 12:30:12;;;;;;;3.17;2.75;;;26.50;99.90;;;;;;5027322;28;20068;-66
2023/09/04 12:32:44;;;;;;;3.83;2.75;;;26.50;99.90;;;;;;5024607;28;20041;-66
2023/09/04 12:35:19;;;;;;;3.95;3.10;;;26.60;99.90;;;;;;5020627;28;20517;-66
2023/09/04 12:37:53;;;;;;;3.72;3.10;;;26.60;99.90;;;;;;5019419;28;20498;-66
2023/09/04 12:40:25;;;;;;;3.45;3.15;;;26.70;99.90;;;;;;5016250;28;20129;-66
2023/09/04 12:42:57;;;;;;;7.15;3.22;;;26.80;99.90;;;;;;5025006;28;20048;-66
2023/09/04 12:45:25;;;;;;;3.55;3.25;;;26.80;99.90;;;;;;5024235;28;20099;-66
2023/09/04 12:47:59;;;;;;;3.10;2.80;;;26.80;99.90;;;;;;5028888;28;20564;-66
2023/09/04 12:50:26;;;;;;;3.30;3.00;;;26.80;99.90;;;;;;5025287;28;20124;-66
2023/09/04 12:52:59;;;;;;;3.30;2.63;;;26.80;99.90;;;;;;5027270;28;20041;-65
2023/09/04 12:55:31;;;;;;;3.93;3.50;;;26.80;99.90;;;;;;5008032;28;20041;-66
2023/09/04 12:58:08;;;;;;;;;;;26.80;99.90;;;;;;5030862;28;20125;-66
2023/09/04 13:00:35;;;;;;;4.10;3.28;;;26.80;99.90;;;;;;5019717;28;19925;-66
2023/09/04 13:03:08;;;;;;;4.13;3.72;;;26.80;99.90;;;;;;5023478;28;20042;-65
2023/09/04 13:05:40;;;;;;;4.05;3.65;;;26.90;99.90;;;;;;5026409;28;20048;-66
2023/09/04 13:08:12;;;;;;;5.18;3.72;;;26.90;99.90;;;;;;5026068;28;20043;-66
2023/09/04 13:10:44;;;;;;;3.77;3.33;;;27.00;99.90;;;;;;5025009;28;20552;-66
2023/09/04 13:13:16;;;;;;;4.00;3.33;;;27.00;99.90;;;;;;5029414;28;20409;-65